sensor_id;sensor_type;location;lat;lon;timestamp;pressure;altitude;pressure_sealevel;temperature;humidity
17615;BME280;8926;49.720;6.576;2023-02-28T00:01:01;100741.97;;;1.51;55.76
17615;BME280;8926;49.720;6.576;2023-02-28T00:03:27;100740.25;;;1.50;56.32
17615;BME280;8926;49.720;6.576;2023-02-28T00:05:52;100739.41;;;1.46;55.37
17615;BME280;8926;49.720;6.576;2023-02-28T00:08:17;100743.72;;;1.43;55.53
17615;BME280;8926;49.720;6.576;2023-02-28T00:10:42;100743.72;;;1.40;55.17
17615;BME280;8926;49.720;6.576;2023-02-28T00:13:08;100752.31;;;1.32;55.91
17615;BME280;8926;49.720;6.576;2023-02-28T00:15:34;100740.31;;;1.31;55.42
17615;BME280;8926;49.720;6.576;2023-02-28T00:17:59;100746.34;;;1.24;57.20
17615;BME280;8926;49.720;6.576;2023-02-28T00:20:24;100741.22;;;1.21;56.65
17615;BME280;8926;49.720;6.576;2023-02-28T00:22:51;100742.94;;;1.16;57.10
17615;BME280;8926;49.720;6.576;2023-02-28T00:25:19;100746.38;;;1.18;56.49
17615;BME280;8926;49.720;6.576;2023-02-28T00:27:46;100742.94;;;1.12;56.38
17615;BME280;8926;49.720;6.576;2023-02-28T00:30:15;100747.22;;;1.14;56.43
17615;BME280;8926;49.720;6.576;2023-02-28T00:32:40;100747.22;;;1.11;56.91
17615;BME280;8926;49.720;6.576;2023-02-28T00:35:07;100743.78;;;1.09;57.04
17615;BME280;8926;49.720;6.576;2023-02-28T00:37:33;100747.22;;;1.05;56.81
17615;BME280;8926;49.720;6.576;2023-02-28T00:39:59;100745.56;;;0.98;58.33
17615;BME280;8926;49.720;6.576;2023-02-28T00:42:24;100747.28;;;0.96;57.49
17615;BME280;8926;49.720;6.576;2023-02-28T00:44:50;100742.13;;;0.93;58.22
17615;BME280;8926;49.720;6.576;2023-02-28T00:47:15;100748.13;;;0.96;58.30
17615;BME280;8926;49.720;6.576;2023-02-28T00:49:41;100746.41;;;0.95;58.12
17615;BME280;8926;49.720;6.576;2023-02-28T00:52:06;100748.97;;;0.97;57.00
17615;BME280;8926;49.720;6.576;2023-02-28T00:54:31;100744.69;;;1.00;57.03
17615;BME280;8926;49.720;6.576;2023-02-28T00:56:57;100748.94;;;1.05;56.72
17615;BME280;8926;49.720;6.576;2023-02-28T00:59:22;100751.53;;;1.06;57.14
17615;BME280;8926;49.720;6.576;2023-02-28T01:01:47;100748.09;;;1.04;57.37
17615;BME280;8926;49.720;6.576;2023-02-28T01:04:13;100750.69;;;1.02;57.17
17615;BME280;8926;49.720;6.576;2023-02-28T01:06:39;100744.69;;;1.00;57.75
17615;BME280;8926;49.720;6.576;2023-02-28T01:09:06;100751.56;;;1.00;59.18
17615;BME280;8926;49.720;6.576;2023-02-28T01:11:32;100752.41;;;0.99;58.58
17615;BME280;8926;49.720;6.576;2023-02-28T01:13:58;100747.25;;;1.02;58.39
17615;BME280;8926;49.720;6.576;2023-02-28T01:16:24;100757.56;;;0.99;58.65
17615;BME280;8926;49.720;6.576;2023-02-28T01:18:50;100755.84;;;1.01;58.18
17615;BME280;8926;49.720;6.576;2023-02-28T01:21:17;100754.13;;;0.98;57.84
17615;BME280;8926;49.720;6.576;2023-02-28T01:23:43;100748.97;;;0.97;57.50
17615;BME280;8926;49.720;6.576;2023-02-28T01:26:13;100749.84;;;0.90;59.23
17615;BME280;8926;49.720;6.576;2023-02-28T01:28:39;100758.41;;;0.84;59.29
17615;BME280;8926;49.720;6.576;2023-02-28T01:31:05;100761.00;;;0.83;59.43
17615;BME280;8926;49.720;6.576;2023-02-28T01:33:31;100755.00;;;0.85;57.77
17615;BME280;8926;49.720;6.576;2023-02-28T01:36:04;100757.56;;;0.81;59.43
17615;BME280;8926;49.720;6.576;2023-02-28T01:38:30;100755.84;;;0.80;58.60
17615;BME280;8926;49.720;6.576;2023-02-28T01:40:56;100749.84;;;0.79;59.24
17615;BME280;8926;49.720;6.576;2023-02-28T01:43:28;100755.84;;;0.83;58.65
17615;BME280;8926;49.720;6.576;2023-02-28T01:45:55;100742.97;;;0.81;58.61
17615;BME280;8926;49.720;6.576;2023-02-28T01:48:24;100749.84;;;0.79;60.31
17615;BME280;8926;49.720;6.576;2023-02-28T01:50:51;100755.84;;;0.80;58.70
17615;BME280;8926;49.720;6.576;2023-02-28T01:53:21;100743.88;;;0.76;60.23
17615;BME280;8926;49.720;6.576;2023-02-28T01:55:51;100743.88;;;0.73;59.00
17615;BME280;8926;49.720;6.576;2023-02-28T01:58:17;100743.88;;;0.73;59.57
17615;BME280;8926;49.720;6.576;2023-02-28T02:00:43;100740.44;;;0.74;59.98
17615;BME280;8926;49.720;6.576;2023-02-28T02:03:12;100745.59;;;0.74;59.63
17615;BME280;8926;49.720;6.576;2023-02-28T02:05:39;100739.59;;;0.72;58.41
17615;BME280;8926;49.720;6.576;2023-02-28T02:08:08;100747.28;;;0.68;59.38
17615;BME280;8926;49.720;6.576;2023-02-28T02:13:08;100743.88;;;0.57;60.26
17615;BME280;8926;49.720;6.576;2023-02-28T02:18:22;100739.56;;;0.55;59.40
17615;BME280;8926;49.720;6.576;2023-02-28T02:21:18;100738.75;;;0.51;60.08
17615;BME280;8926;49.720;6.576;2023-02-28T02:33:29;100721.59;;;0.41;60.66
17615;BME280;8926;49.720;6.576;2023-02-28T02:40:54;100732.72;;;0.32;61.65
17615;BME280;8926;49.720;6.576;2023-02-28T02:43:26;100724.16;;;0.30;61.14
17615;BME280;8926;49.720;6.576;2023-02-28T02:46:04;100731.84;;;0.29;61.74
17615;BME280;8926;49.720;6.576;2023-02-28T02:48:33;100725.88;;;0.25;62.47
17615;BME280;8926;49.720;6.576;2023-02-28T02:51:01;100730.16;;;0.19;62.60
17615;BME280;8926;49.720;6.576;2023-02-28T02:53:34;100733.56;;;0.18;64.00
17615;BME280;8926;49.720;6.576;2023-02-28T02:56:02;100731.00;;;0.18;61.61
17615;BME280;8926;49.720;6.576;2023-02-28T02:58:32;100730.16;;;0.16;62.72
17615;BME280;8926;49.720;6.576;2023-02-28T03:01:01;100736.97;;;0.12;63.37
17615;BME280;8926;49.720;6.576;2023-02-28T03:03:29;100733.56;;;0.09;62.66
17615;BME280;8926;49.720;6.576;2023-02-28T03:06:00;100727.53;;;0.02;62.61
17615;BME280;8926;49.720;6.576;2023-02-28T03:08:28;100730.97;;;-0.07;63.80
17615;BME280;8926;49.720;6.576;2023-02-28T03:11:00;100730.13;;;-0.06;64.37
17615;BME280;8926;49.720;6.576;2023-02-28T03:21:26;100733.53;;;0.03;62.51
17615;BME280;8926;49.720;6.576;2023-02-28T03:24:10;100734.38;;;0.02;62.73
17615;BME280;8926;49.720;6.576;2023-02-28T03:26:42;100727.53;;;0.00;63.95
17615;BME280;8926;49.720;6.576;2023-02-28T03:29:16;100731.81;;;0.03;62.96
17615;BME280;8926;49.720;6.576;2023-02-28T03:31:53;100728.41;;;0.04;62.75
17615;BME280;8926;49.720;6.576;2023-02-28T03:36:52;100728.41;;;-0.07;63.70
17615;BME280;8926;49.720;6.576;2023-02-28T03:39:40;100730.09;;;-0.12;64.61
17615;BME280;8926;49.720;6.576;2023-02-28T03:42:14;100732.66;;;-0.15;63.66
17615;BME280;8926;49.720;6.576;2023-02-28T03:45:16;100729.25;;;-0.11;63.41
17615;BME280;8926;49.720;6.576;2023-02-28T03:50:34;100725.00;;;-0.03;64.96
17615;BME280;8926;49.720;6.576;2023-02-28T03:53:03;100729.25;;;-0.05;64.49
17615;BME280;8926;49.720;6.576;2023-02-28T03:55:34;100725.84;;;-0.07;63.54
17615;BME280;8926;49.720;6.576;2023-02-28T03:58:24;100733.53;;;-0.10;65.45
17615;BME280;8926;49.720;6.576;2023-02-28T04:01:20;100731.81;;;-0.11;65.13
17615;BME280;8926;49.720;6.576;2023-02-28T04:03:49;100735.22;;;-0.12;66.09
17615;BME280;8926;49.720;6.576;2023-02-28T04:06:17;100735.25;;;-0.06;63.27
17615;BME280;8926;49.720;6.576;2023-02-28T04:08:43;100736.97;;;-0.08;65.04
17615;BME280;8926;49.720;6.576;2023-02-28T04:13:40;100732.66;;;-0.09;64.33
17615;BME280;8926;49.720;6.576;2023-02-28T04:16:08;100728.41;;;-0.07;64.36
17615;BME280;8926;49.720;6.576;2023-02-28T04:18:39;100728.41;;;-0.08;65.46
17615;BME280;8926;49.720;6.576;2023-02-28T04:21:06;100731.78;;;-0.14;65.51
17615;BME280;8926;49.720;6.576;2023-02-28T04:23:31;100731.78;;;-0.17;64.92
17615;BME280;8926;49.720;6.576;2023-02-28T04:25:57;100731.78;;;-0.17;64.29
17615;BME280;8926;49.720;6.576;2023-02-28T04:28:22;100733.47;;;-0.25;65.52
17615;BME280;8926;49.720;6.576;2023-02-28T04:30:53;100733.47;;;-0.22;64.81
17615;BME280;8926;49.720;6.576;2023-02-28T04:33:18;100733.47;;;-0.22;64.24
17615;BME280;8926;49.720;6.576;2023-02-28T04:35:44;100735.19;;;-0.21;63.30
17615;BME280;8926;49.720;6.576;2023-02-28T04:38:09;100730.03;;;-0.24;64.36
17615;BME280;8926;49.720;6.576;2023-02-28T04:40:35;100721.50;;;-0.29;66.40
17615;BME280;8926;49.720;6.576;2023-02-28T04:43:00;100716.34;;;-0.30;65.55
17615;BME280;8926;49.720;6.576;2023-02-28T04:45:25;100725.75;;;-0.32;67.80
17615;BME280;8926;49.720;6.576;2023-02-28T04:47:51;100720.63;;;-0.29;66.74
17615;BME280;8926;49.720;6.576;2023-02-28T04:50:16;100721.50;;;-0.23;67.03
17615;BME280;8926;49.720;6.576;2023-02-28T04:52:41;100730.91;;;-0.20;67.02
17615;BME280;8926;49.720;6.576;2023-02-28T04:55:07;100729.22;;;-0.17;67.07
17615;BME280;8926;49.720;6.576;2023-02-28T04:57:32;100735.25;;;-0.09;67.20
17615;BME280;8926;49.720;6.576;2023-02-28T04:59:57;100734.38;;;-0.08;66.58
17615;BME280;8926;49.720;6.576;2023-02-28T05:02:23;100731.78;;;-0.14;67.29
17615;BME280;8926;49.720;6.576;2023-02-28T05:04:48;100736.94;;;-0.11;65.60
17615;BME280;8926;49.720;6.576;2023-02-28T05:07:14;100726.66;;;-0.15;65.68
17615;BME280;8926;49.720;6.576;2023-02-28T05:09:39;100735.22;;;-0.18;65.55
17615;BME280;8926;49.720;6.576;2023-02-28T05:12:04;100743.75;;;-0.22;68.51
17615;BME280;8926;49.720;6.576;2023-02-28T05:14:30;100741.16;;;-0.25;68.83
17615;BME280;8926;49.720;6.576;2023-02-28T05:16:55;100733.47;;;-0.25;68.37
17615;BME280;8926;49.720;6.576;2023-02-28T05:19:20;100751.44;;;-0.25;68.51
17615;BME280;8926;49.720;6.576;2023-02-28T05:21:54;100741.19;;;-0.28;68.68
17615;BME280;8926;49.720;6.576;2023-02-28T05:24:20;100741.16;;;-0.25;69.67
17615;BME280;8926;49.720;6.576;2023-02-28T05:26:49;100745.47;;;-0.21;69.15
17615;BME280;8926;49.720;6.576;2023-02-28T05:29:15;100742.03;;;-0.20;69.06
17615;BME280;8926;49.720;6.576;2023-02-28T05:31:40;100745.50;;;-0.15;69.12
17615;BME280;8926;49.720;6.576;2023-02-28T05:34:06;100745.50;;;-0.09;68.48
17615;BME280;8926;49.720;6.576;2023-02-28T05:36:31;100738.66;;;-0.13;70.69
17615;BME280;8926;49.720;6.576;2023-02-28T05:38:57;100745.50;;;-0.15;70.37
17615;BME280;8926;49.720;6.576;2023-02-28T05:41:22;100736.94;;;-0.11;70.29
17615;BME280;8926;49.720;6.576;2023-02-28T05:43:48;100747.22;;;-0.08;70.10
17615;BME280;8926;49.720;6.576;2023-02-28T05:46:14;100749.81;;;-0.05;69.38
17615;BME280;8926;49.720;6.576;2023-02-28T05:48:41;100742.97;;;-0.04;69.83
17615;BME280;8926;49.720;6.576;2023-02-28T05:51:07;100743.81;;;-0.04;69.98
17615;BME280;8926;49.720;6.576;2023-02-28T05:53:34;100750.66;;;-0.06;70.48
17615;BME280;8926;49.720;6.576;2023-02-28T05:55:59;100755.81;;;-0.03;68.87
17615;BME280;8926;49.720;6.576;2023-02-28T05:58:25;100752.38;;;-0.02;68.57
17615;BME280;8926;49.720;6.576;2023-02-28T06:00:54;100745.53;;;-0.03;68.74
17615;BME280;8926;49.720;6.576;2023-02-28T06:03:19;100751.53;;;-0.01;69.43
17615;BME280;8926;49.720;6.576;2023-02-28T06:05:44;100750.66;;;0.04;68.50
17615;BME280;8926;49.720;6.576;2023-02-28T06:08:10;100754.06;;;0.03;68.23
17615;BME280;8926;49.720;6.576;2023-02-28T06:10:35;100757.53;;;-0.02;70.44
17615;BME280;8926;49.720;6.576;2023-02-28T06:13:02;100754.09;;;-0.04;70.50
17615;BME280;8926;49.720;6.576;2023-02-28T06:15:28;100756.66;;;-0.07;71.44
17615;BME280;8926;49.720;6.576;2023-02-28T06:17:53;100752.38;;;-0.05;69.04
17615;BME280;8926;49.720;6.576;2023-02-28T06:20:19;100756.66;;;-0.01;68.42
17615;BME280;8926;49.720;6.576;2023-02-28T06:22:44;100755.78;;;0.04;68.00
17615;BME280;8926;49.720;6.576;2023-02-28T06:25:10;100760.91;;;0.00;68.66
17615;BME280;8926;49.720;6.576;2023-02-28T06:27:35;100762.66;;;-0.02;70.20
17615;BME280;8926;49.720;6.576;2023-02-28T06:30:00;100766.06;;;0.00;69.78
17615;BME280;8926;49.720;6.576;2023-02-28T06:32:26;100771.19;;;0.00;69.93
17615;BME280;8926;49.720;6.576;2023-02-28T06:34:51;100768.63;;;0.00;70.71
17615;BME280;8926;49.720;6.576;2023-02-28T06:37:17;100779.75;;;0.03;70.49
17615;BME280;8926;49.720;6.576;2023-02-28T06:39:42;100772.09;;;0.09;70.39
17615;BME280;8926;49.720;6.576;2023-02-28T06:42:08;100784.09;;;0.14;70.25
17615;BME280;8926;49.720;6.576;2023-02-28T06:44:33;100781.53;;;0.19;70.48
17615;BME280;8926;49.720;6.576;2023-02-28T06:47:03;100778.13;;;0.24;68.13
17615;BME280;8926;49.720;6.576;2023-02-28T06:49:30;100780.69;;;0.26;68.43
17615;BME280;8926;49.720;6.576;2023-02-28T06:51:55;100786.69;;;0.31;69.02
17615;BME280;8926;49.720;6.576;2023-02-28T06:54:21;100783.28;;;0.41;68.15
17615;BME280;8926;49.720;6.576;2023-02-28T06:56:46;100783.28;;;0.44;69.39
17615;BME280;8926;49.720;6.576;2023-02-28T06:59:12;100780.72;;;0.50;67.13
17615;BME280;8926;49.720;6.576;2023-02-28T07:01:37;100785.84;;;0.55;68.22
17615;BME280;8926;49.720;6.576;2023-02-28T07:04:04;100786.72;;;0.61;67.08
17615;BME280;8926;49.720;6.576;2023-02-28T07:06:30;100788.44;;;0.62;66.33
17615;BME280;8926;49.720;6.576;2023-02-28T07:08:56;100795.28;;;0.62;67.50
17615;BME280;8926;49.720;6.576;2023-02-28T07:11:23;100792.72;;;0.66;66.50
17615;BME280;8926;49.720;6.576;2023-02-28T07:13:51;100796.16;;;0.73;66.80
17615;BME280;8926;49.720;6.576;2023-02-28T07:16:16;100797.84;;;0.86;66.05
17615;BME280;8926;49.720;6.576;2023-02-28T07:18:42;100798.63;;;1.39;65.69
17615;BME280;8926;49.720;6.576;2023-02-28T07:21:09;100790.09;;;3.69;61.32
17615;BME280;8926;49.720;6.576;2023-02-28T07:23:35;100779.25;;;5.61;58.71
17615;BME280;8926;49.720;6.576;2023-02-28T07:26:00;100777.16;;;6.94;54.50
17615;BME280;8926;49.720;6.576;2023-02-28T07:28:26;100772.75;;;7.90;54.31
17615;BME280;8926;49.720;6.576;2023-02-28T07:30:52;100775.72;;;8.63;50.85
17615;BME280;8926;49.720;6.576;2023-02-28T07:33:17;100764.97;;;9.25;49.58
17615;BME280;8926;49.720;6.576;2023-02-28T07:35:43;100766.50;;;9.79;48.30
17615;BME280;8926;49.720;6.576;2023-02-28T07:38:09;100771.69;;;10.26;47.72
17615;BME280;8926;49.720;6.576;2023-02-28T07:40:35;100767.38;;;10.01;45.62
17615;BME280;8926;49.720;6.576;2023-02-28T07:43:01;100767.81;;;9.42;45.88
17615;BME280;8926;49.720;6.576;2023-02-28T07:45:27;100759.19;;;10.34;44.98
17615;BME280;8926;49.720;6.576;2023-02-28T07:47:53;100758.00;;;11.05;44.66
17615;BME280;8926;49.720;6.576;2023-02-28T07:50:19;100749.31;;;11.64;43.94
17615;BME280;8926;49.720;6.576;2023-02-28T07:52:44;100739.91;;;11.97;41.99
17615;BME280;8926;49.720;6.576;2023-02-28T07:55:10;100737.34;;;12.86;42.67
17615;BME280;8926;49.720;6.576;2023-02-28T07:57:36;100740.88;;;12.68;40.51
17615;BME280;8926;49.720;6.576;2023-02-28T08:00:06;100736.41;;;12.17;41.72
17615;BME280;8926;49.720;6.576;2023-02-28T08:02:32;100757.03;;;11.46;41.53
17615;BME280;8926;49.720;6.576;2023-02-28T08:04:57;100742.34;;;12.20;40.70
17615;BME280;8926;49.720;6.576;2023-02-28T08:07:23;100753.03;;;12.52;38.42
17615;BME280;8926;49.720;6.576;2023-02-28T08:09:48;100746.03;;;13.39;38.47
17615;BME280;8926;49.720;6.576;2023-02-28T08:12:13;100740.66;;;13.57;35.34
17615;BME280;8926;49.720;6.576;2023-02-28T08:14:38;100733.59;;;13.91;34.61
17615;BME280;8926;49.720;6.576;2023-02-28T08:17:05;100732.41;;;14.44;32.79
17615;BME280;8926;49.720;6.576;2023-02-28T08:19:30;100724.44;;;13.98;33.49
17615;BME280;8926;49.720;6.576;2023-02-28T08:21:56;100732.66;;;14.55;33.83
17615;BME280;8926;49.720;6.576;2023-02-28T08:24:21;100734.81;;;14.92;32.58
17615;BME280;8926;49.720;6.576;2023-02-28T08:26:47;100739.50;;;14.87;32.60
17615;BME280;8926;49.720;6.576;2023-02-28T08:29:12;100737.16;;;14.53;32.89
17615;BME280;8926;49.720;6.576;2023-02-28T08:31:37;100739.63;;;13.44;33.95
17615;BME280;8926;49.720;6.576;2023-02-28T08:34:11;100740.00;;;12.50;34.84
17615;BME280;8926;49.720;6.576;2023-02-28T08:36:37;100747.09;;;11.54;35.94
17615;BME280;8926;49.720;6.576;2023-02-28T08:39:04;100751.03;;;10.63;37.45
17615;BME280;8926;49.720;6.576;2023-02-28T08:41:30;100744.31;;;10.36;38.59
17615;BME280;8926;49.720;6.576;2023-02-28T08:43:55;100746.38;;;10.04;38.67
17615;BME280;8926;49.720;6.576;2023-02-28T08:46:21;100747.22;;;9.83;39.57
17615;BME280;8926;49.720;6.576;2023-02-28T08:48:46;100740.41;;;9.79;39.20
17615;BME280;8926;49.720;6.576;2023-02-28T08:51:14;100746.41;;;9.58;39.99
17615;BME280;8926;49.720;6.576;2023-02-28T08:53:41;100746.97;;;9.66;40.40
17615;BME280;8926;49.720;6.576;2023-02-28T08:56:09;100740.63;;;9.73;40.45
17615;BME280;8926;49.720;6.576;2023-02-28T08:58:35;100739.38;;;9.83;39.40
17615;BME280;8926;49.720;6.576;2023-02-28T09:01:00;100750.09;;;9.75;39.43
17615;BME280;8926;49.720;6.576;2023-02-28T09:03:32;100745.03;;;9.47;39.69
17615;BME280;8926;49.720;6.576;2023-02-28T09:06:00;100743.53;;;9.40;39.58
17615;BME280;8926;49.720;6.576;2023-02-28T09:08:27;100750.47;;;9.41;39.56
17615;BME280;8926;49.720;6.576;2023-02-28T09:10:53;100741.19;;;9.34;39.39
17615;BME280;8926;49.720;6.576;2023-02-28T09:13:20;100748.41;;;9.26;39.53
17615;BME280;8926;49.720;6.576;2023-02-28T09:15:45;100738.63;;;9.08;39.45
17615;BME280;8926;49.720;6.576;2023-02-28T09:18:12;100732.56;;;8.56;39.93
17615;BME280;8926;49.720;6.576;2023-02-28T09:20:38;100745.38;;;8.06;39.99
17615;BME280;8926;49.720;6.576;2023-02-28T09:23:05;100738.84;;;7.64;40.91
17615;BME280;8926;49.720;6.576;2023-02-28T09:25:30;100757.66;;;7.10;41.81
17615;BME280;8926;49.720;6.576;2023-02-28T09:28:17;100758.28;;;6.86;42.28
17615;BME280;8926;49.720;6.576;2023-02-28T09:30:49;100763.09;;;6.67;42.35
17615;BME280;8926;49.720;6.576;2023-02-28T09:33:16;100757.28;;;6.57;42.23
17615;BME280;8926;49.720;6.576;2023-02-28T09:35:42;100759.34;;;6.43;42.41
17615;BME280;8926;49.720;6.576;2023-02-28T09:38:09;100758.59;;;6.38;42.73
17615;BME280;8926;49.720;6.576;2023-02-28T09:40:47;100754.50;;;6.28;43.11
17615;BME280;8926;49.720;6.576;2023-02-28T09:43:15;100748.69;;;6.18;42.68
17615;BME280;8926;49.720;6.576;2023-02-28T09:45:42;100762.16;;;5.95;43.05
17615;BME280;8926;49.720;6.576;2023-02-28T09:48:14;100754.59;;;5.83;43.97
17615;BME280;8926;49.720;6.576;2023-02-28T09:53:35;100751.97;;;5.43;43.91
17615;BME280;8926;49.720;6.576;2023-02-28T09:56:22;100759.72;;;5.44;43.86
17615;BME280;8926;49.720;6.576;2023-02-28T09:59:04;100758.97;;;5.38;44.21
17615;BME280;8926;49.720;6.576;2023-02-28T10:04:42;100755.91;;;5.19;44.00
17615;BME280;8926;49.720;6.576;2023-02-28T10:09:47;100750.47;;;5.73;43.69
17615;BME280;8926;49.720;6.576;2023-02-28T10:12:16;100756.06;;;6.35;43.30
17615;BME280;8926;49.720;6.576;2023-02-28T10:14:45;100752.88;;;6.95;42.20
17615;BME280;8926;49.720;6.576;2023-02-28T10:17:19;100757.41;;;7.52;41.22
17615;BME280;8926;49.720;6.576;2023-02-28T10:19:53;100747.00;;;7.81;39.81
17615;BME280;8926;49.720;6.576;2023-02-28T10:22:28;100734.38;;;7.98;40.50
17615;BME280;8926;49.720;6.576;2023-02-28T10:24:57;100739.34;;;8.34;39.66
17615;BME280;8926;49.720;6.576;2023-02-28T10:27:32;100735.75;;;8.64;39.29
17615;BME280;8926;49.720;6.576;2023-02-28T10:30:00;100727.72;;;8.97;38.76
17615;BME280;8926;49.720;6.576;2023-02-28T10:32:31;100724.09;;;8.76;38.51
17615;BME280;8926;49.720;6.576;2023-02-28T10:35:15;100727.81;;;8.94;38.11
17615;BME280;8926;49.720;6.576;2023-02-28T10:37:43;100722.06;;;8.84;38.63
17615;BME280;8926;49.720;6.576;2023-02-28T10:40:33;100725.91;;;8.99;38.19
17615;BME280;8926;49.720;6.576;2023-02-28T10:43:21;100721.97;;;9.12;38.22
17615;BME280;8926;49.720;6.576;2023-02-28T10:45:56;100709.09;;;9.32;38.20
17615;BME280;8926;49.720;6.576;2023-02-28T10:56:15;100697.19;;;9.00;38.73
17615;BME280;8926;49.720;6.576;2023-02-28T10:59:01;100699.72;;;9.27;38.87
17615;BME280;8926;49.720;6.576;2023-02-28T11:03:55;100697.81;;;8.57;39.07
17615;BME280;8926;49.720;6.576;2023-02-28T11:06:25;100701.88;;;8.91;38.53
17615;BME280;8926;49.720;6.576;2023-02-28T11:08:56;100699.91;;;8.97;38.42
17615;BME280;8926;49.720;6.576;2023-02-28T11:11:25;100700.84;;;8.95;39.46
17615;BME280;8926;49.720;6.576;2023-02-28T11:13:57;100695.69;;;9.18;38.59
17615;BME280;8926;49.720;6.576;2023-02-28T11:16:34;100698.56;;;9.35;37.96
17615;BME280;8926;49.720;6.576;2023-02-28T11:19:01;100700.50;;;8.80;38.67
17615;BME280;8926;49.720;6.576;2023-02-28T11:21:32;100696.50;;;8.44;38.74
17615;BME280;8926;49.720;6.576;2023-02-28T11:24:29;100692.28;;;8.12;39.83
17615;BME280;8926;49.720;6.576;2023-02-28T11:26:56;100684.88;;;8.28;38.93
17615;BME280;8926;49.720;6.576;2023-02-28T11:32:02;100681.16;;;8.35;38.11
17615;BME280;8926;49.720;6.576;2023-02-28T11:34:28;100696.09;;;8.30;38.33
17615;BME280;8926;49.720;6.576;2023-02-28T11:36:55;100696.31;;;8.22;37.52
17615;BME280;8926;49.720;6.576;2023-02-28T11:39:22;100691.13;;;7.94;37.15
17615;BME280;8926;49.720;6.576;2023-02-28T11:44:32;100697.63;;;7.52;38.27
17615;BME280;8926;49.720;6.576;2023-02-28T11:47:12;100692.09;;;7.31;38.24
17615;BME280;8926;49.720;6.576;2023-02-28T11:55:21;100696.38;;;6.70;39.43
17615;BME280;8926;49.720;6.576;2023-02-28T12:03:30;100687.78;;;6.68;39.67
17615;BME280;8926;49.720;6.576;2023-02-28T12:06:15;100682.56;;;6.68;39.63
17615;BME280;8926;49.720;6.576;2023-02-28T12:09:04;100683.88;;;6.51;39.71
17615;BME280;8926;49.720;6.576;2023-02-28T12:11:51;100687.19;;;6.57;39.54
17615;BME280;8926;49.720;6.576;2023-02-28T12:17:46;100683.69;;;6.58;39.82
17615;BME280;8926;49.720;6.576;2023-02-28T12:20:41;100687.78;;;6.68;39.36
17615;BME280;8926;49.720;6.576;2023-02-28T12:26:00;100687.69;;;6.71;39.28
17615;BME280;8926;49.720;6.576;2023-02-28T12:28:33;100682.25;;;6.80;38.71
17615;BME280;8926;49.720;6.576;2023-02-28T12:31:14;100666.44;;;6.90;40.17
17615;BME280;8926;49.720;6.576;2023-02-28T12:33:45;100668.06;;;6.94;39.23
17615;BME280;8926;49.720;6.576;2023-02-28T12:36:14;100676.47;;;7.02;38.88
17615;BME280;8926;49.720;6.576;2023-02-28T12:38:48;100662.41;;;7.09;38.69
17615;BME280;8926;49.720;6.576;2023-02-28T12:41:53;100668.88;;;6.96;39.11
17615;BME280;8926;49.720;6.576;2023-02-28T12:44:33;100663.81;;;6.90;38.37
17615;BME280;8926;49.720;6.576;2023-02-28T12:47:05;100666.53;;;6.85;38.51
17615;BME280;8926;49.720;6.576;2023-02-28T12:49:42;100656.47;;;6.74;38.91
17615;BME280;8926;49.720;6.576;2023-02-28T12:52:13;100654.66;;;6.76;39.34
17615;BME280;8926;49.720;6.576;2023-02-28T12:54:53;100659.28;;;6.98;39.02
17615;BME280;8926;49.720;6.576;2023-02-28T13:00:02;100663.44;;;7.34;38.83
17615;BME280;8926;49.720;6.576;2023-02-28T13:10:41;100645.66;;;6.90;38.53
17615;BME280;8926;49.720;6.576;2023-02-28T13:13:14;100635.69;;;6.74;38.33
17615;BME280;8926;49.720;6.576;2023-02-28T13:15:40;100648.97;;;6.62;39.38
17615;BME280;8926;49.720;6.576;2023-02-28T13:20:55;100641.84;;;6.70;38.87
17615;BME280;8926;49.720;6.576;2023-02-28T13:23:40;100644.78;;;6.89;38.78
17615;BME280;8926;49.720;6.576;2023-02-28T13:47:41;100635.09;;;7.55;37.70
17615;BME280;8926;49.720;6.576;2023-02-28T13:58:33;100627.22;;;7.28;37.94
17615;BME280;8926;49.720;6.576;2023-02-28T14:03:36;100638.31;;;7.04;37.95
17615;BME280;8926;49.720;6.576;2023-02-28T14:06:28;100638.66;;;6.92;38.18
17615;BME280;8926;49.720;6.576;2023-02-28T14:09:16;100633.72;;;6.82;38.72
17615;BME280;8926;49.720;6.576;2023-02-28T14:11:44;100628.69;;;6.76;39.11
17615;BME280;8926;49.720;6.576;2023-02-28T14:17:22;100627.56;;;6.87;38.82
17615;BME280;8926;49.720;6.576;2023-02-28T14:19:49;100625.19;;;6.77;38.68
17615;BME280;8926;49.720;6.576;2023-02-28T14:31:22;100626.22;;;6.72;39.04
17615;BME280;8926;49.720;6.576;2023-02-28T14:33:38;100617.41;;;6.77;39.18
17615;BME280;8926;49.720;6.576;2023-02-28T14:38:52;100633.63;;;6.86;38.23
17615;BME280;8926;49.720;6.576;2023-02-28T14:41:23;100625.09;;;6.80;38.63
17615;BME280;8926;49.720;6.576;2023-02-28T14:43:52;100611.44;;;6.75;39.46
17615;BME280;8926;49.720;6.576;2023-02-28T14:46:18;100616.69;;;6.72;38.89
17615;BME280;8926;49.720;6.576;2023-02-28T14:48:46;100614.03;;;6.75;39.31
17615;BME280;8926;49.720;6.576;2023-02-28T14:51:18;100619.97;;;6.79;39.67
17615;BME280;8926;49.720;6.576;2023-02-28T14:53:48;100612.84;;;6.86;39.16
17615;BME280;8926;49.720;6.576;2023-02-28T14:56:21;100609.38;;;6.87;39.17
17615;BME280;8926;49.720;6.576;2023-02-28T14:58:52;100609.53;;;6.80;39.21
17615;BME280;8926;49.720;6.576;2023-02-28T15:01:20;100616.50;;;6.78;39.13
17615;BME280;8926;49.720;6.576;2023-02-28T15:03:46;100613.94;;;6.77;39.22
17615;BME280;8926;49.720;6.576;2023-02-28T15:06:15;100607.75;;;6.82;39.21
17615;BME280;8926;49.720;6.576;2023-02-28T15:08:43;100620.09;;;6.74;38.87
17615;BME280;8926;49.720;6.576;2023-02-28T15:11:13;100623.75;;;6.67;38.95
17615;BME280;8926;49.720;6.576;2023-02-28T15:13:43;100611.75;;;6.63;39.53
17615;BME280;8926;49.720;6.576;2023-02-28T15:18:49;100605.47;;;6.72;39.13
17615;BME280;8926;49.720;6.576;2023-02-28T15:21:24;100601.97;;;6.73;39.76
17615;BME280;8926;49.720;6.576;2023-02-28T15:23:57;100594.16;;;6.74;39.60
17615;BME280;8926;49.720;6.576;2023-02-28T15:26:31;100609.81;;;6.71;39.61
17615;BME280;8926;49.720;6.576;2023-02-28T15:29:00;100604.53;;;6.74;39.73
17615;BME280;8926;49.720;6.576;2023-02-28T15:31:29;100602.81;;;6.73;39.87
17615;BME280;8926;49.720;6.576;2023-02-28T15:33:57;100609.75;;;6.73;39.77
17615;BME280;8926;49.720;6.576;2023-02-28T15:36:29;100613.53;;;6.61;39.90
17615;BME280;8926;49.720;6.576;2023-02-28T15:38:57;100614.50;;;6.57;40.27